createdAt,value
2022-09-23T00:01:22.636Z,61.24
2022-09-23T00:03:50.300Z,60.20
2022-09-23T00:06:23.149Z,59.31
2022-09-23T00:08:51.877Z,60.17
2022-09-23T00:11:21.966Z,59.07
2022-09-23T00:13:54.809Z,58.95
2022-09-23T00:16:25.570Z,61.13
2022-09-23T00:18:53.028Z,61.07
2022-09-23T00:21:22.587Z,61.82
2022-09-23T00:23:49.902Z,62.27
2022-09-23T00:26:21.019Z,63.44
2022-09-23T00:28:49.533Z,63.14
2022-09-23T00:31:22.940Z,64.03
2022-09-23T00:33:59.682Z,64.22
2022-09-23T00:36:28.711Z,64.01
2022-09-23T00:38:56.438Z,64.27
2022-09-23T00:41:24.745Z,64.27
2022-09-23T00:43:59.956Z,65.43
2022-09-23T00:46:36.080Z,65.82
2022-09-23T00:49:10.440Z,66.35
2022-09-23T00:51:44.437Z,65.55
2022-09-23T00:54:12.039Z,65.06
2022-09-23T00:56:40.190Z,65.96
2022-09-23T00:59:10.092Z,65.66
2022-09-23T01:01:38.693Z,66.43
2022-09-23T01:04:08.391Z,66.56
2022-09-23T01:06:36.029Z,66.73
2022-09-23T01:09:04.605Z,66.88
2022-09-23T01:12:07.514Z,68.30
2022-09-23T01:14:54.233Z,68.67
2022-09-23T01:17:24.388Z,67.11
2022-09-23T01:20:19.615Z,68.02
2022-09-23T01:22:59.256Z,67.85
2022-09-23T01:25:41.185Z,68.54
2022-09-23T01:28:18.279Z,68.34
2022-09-23T01:31:15.789Z,68.88
2022-09-23T01:33:59.085Z,69.32
2022-09-23T01:36:53.525Z,69.00
2022-09-23T01:39:37.547Z,68.96
2022-09-23T01:42:31.590Z,69.56
2022-09-23T01:45:13.261Z,69.64
2022-09-23T01:47:45.298Z,69.54
2022-09-23T01:50:42.457Z,70.21
2022-09-23T01:53:21.616Z,69.97
2022-09-23T01:56:00.425Z,70.30
2022-09-23T01:58:38.695Z,69.48
2022-09-23T02:01:08.811Z,69.94
2022-09-23T02:03:45.835Z,70.89
2022-09-23T02:06:30.483Z,71.46
2022-09-23T02:09:06.756Z,71.64
2022-09-23T02:11:36.530Z,70.71
2022-09-23T02:14:22.169Z,70.93
2022-09-23T02:16:52.609Z,70.86
2022-09-23T02:19:36.834Z,70.70
2022-09-23T02:22:39.994Z,71.20
2022-09-23T02:25:09.934Z,70.36
2022-09-23T02:27:41.096Z,70.85
2022-09-23T02:30:14.597Z,71.83
2022-09-23T02:33:12.173Z,72.05
2022-09-23T02:35:53.439Z,72.54
2022-09-23T02:38:38.825Z,73.16
2022-09-23T02:41:09.645Z,71.80
2022-09-23T02:43:55.532Z,72.03
2022-09-23T02:46:23.571Z,72.37
2022-09-23T02:48:57.008Z,73.40
2022-09-23T02:51:29.071Z,73.36
2022-09-23T02:53:58.554Z,73.94
2022-09-23T02:56:25.871Z,73.93
2022-09-23T02:58:55.331Z,74.13
2022-09-23T03:01:25.111Z,74.21
2022-09-23T03:04:14.969Z,74.63
2022-09-23T03:06:45.196Z,74.57
2022-09-23T03:09:32.070Z,75.07
2022-09-23T03:12:35.465Z,75.19
2022-09-23T03:15:14.749Z,74.48
2022-09-23T03:17:53.108Z,75.07
2022-09-23T03:20:50.641Z,74.42
2022-09-23T03:23:24.066Z,74.66
2022-09-23T03:25:54.922Z,74.36
2022-09-23T03:28:23.533Z,74.21
2022-09-23T03:30:52.141Z,74.09
2022-09-23T03:33:26.738Z,74.16
2022-09-23T03:36:21.157Z,74.12
2022-09-23T03:38:52.706Z,74.17
2022-09-23T03:41:34.051Z,74.43
2022-09-23T03:44:02.415Z,74.05
2022-09-23T03:46:30.321Z,72.95
2022-09-23T03:49:06.666Z,73.65
2022-09-23T03:51:33.830Z,72.84
2022-09-23T03:54:01.152Z,73.05
2022-09-23T03:56:28.692Z,73.12
2022-09-23T03:58:56.521Z,73.73
2022-09-23T04:01:24.105Z,73.61
2022-09-23T04:03:53.485Z,74.06
2022-09-23T04:06:21.118Z,73.34
2022-09-23T04:08:48.782Z,73.43
2022-09-23T04:11:16.143Z,73.17
2022-09-23T04:13:43.339Z,73.43
2022-09-23T04:16:11.590Z,73.55
2022-09-23T04:18:38.931Z,74.48
2022-09-23T04:21:06.529Z,74.86
2022-09-23T04:23:33.757Z,75.08
2022-09-23T04:26:01.149Z,75.58
2022-09-23T04:28:29.147Z,75.77
2022-09-23T04:30:58.813Z,75.72
2022-09-23T04:33:26.839Z,75.22
2022-09-23T04:35:56.321Z,75.22
2022-09-23T04:38:24.257Z,75.33
2022-09-23T04:40:52.018Z,75.05
2022-09-23T04:43:23.247Z,74.75
2022-09-23T04:46:05.057Z,75.13
2022-09-23T04:48:32.739Z,75.30
2022-09-23T04:51:09.126Z,76.59
2022-09-23T04:53:38.660Z,76.59
2022-09-23T04:56:10.068Z,77.14
2022-09-23T04:58:37.738Z,77.35
2022-09-23T05:01:20.196Z,78.87
2022-09-23T05:03:48.031Z,77.69
2022-09-23T05:06:16.651Z,78.00
2022-09-23T05:08:52.058Z,78.45
2022-09-23T05:11:20.933Z,78.33
2022-09-23T05:13:51.230Z,78.98
2022-09-23T05:16:19.188Z,78.94
2022-09-23T05:18:48.740Z,79.20
2022-09-23T05:21:19.047Z,79.12
2022-09-23T05:23:55.496Z,79.79
2022-09-23T05:26:25.740Z,79.05
2022-09-23T05:28:54.117Z,78.95
2022-09-23T05:31:25.452Z,78.73
2022-09-23T05:33:58.247Z,79.03
2022-09-23T05:36:27.700Z,79.36
2022-09-23T05:38:57.606Z,79.12
2022-09-23T05:41:26.167Z,78.76
2022-09-23T05:43:55.884Z,78.81
2022-09-23T05:46:29.034Z,79.04
2022-09-23T05:49:03.482Z,78.72
2022-09-23T05:51:32.798Z,78.58
2022-09-23T05:54:03.125Z,77.94
2022-09-23T05:56:33.021Z,78.00
2022-09-23T05:59:03.544Z,78.28
2022-09-23T06:01:34.284Z,77.78
2022-09-23T06:04:03.790Z,76.47
2022-09-23T06:06:34.129Z,75.45
2022-09-23T06:09:02.094Z,74.55
2022-09-23T06:11:35.446Z,73.91
2022-09-23T06:14:05.907Z,72.77
2022-09-23T06:16:35.454Z,72.47
2022-09-23T06:19:06.568Z,72.32
2022-09-23T06:21:39.944Z,70.81
2022-09-23T06:24:08.359Z,70.31
2022-09-23T06:26:38.097Z,70.56
2022-09-23T06:29:12.035Z,69.85
2022-09-23T06:31:41.350Z,69.61
2022-09-23T06:34:14.741Z,69.14
2022-09-23T06:36:45.583Z,69.04
2022-09-23T06:39:16.856Z,70.97
2022-09-23T06:41:47.199Z,71.59
2022-09-23T06:44:15.327Z,71.68
2022-09-23T06:46:43.573Z,70.66
2022-09-23T06:49:13.466Z,70.29
2022-09-23T06:51:41.702Z,70.00
2022-09-23T06:54:09.481Z,71.41
2022-09-23T06:56:39.340Z,70.96
2022-09-23T06:59:10.644Z,70.58
2022-09-23T07:01:38.663Z,71.85
2022-09-23T07:04:08.074Z,72.05
2022-09-23T07:06:35.665Z,72.05
2022-09-23T07:09:03.919Z,70.94
2022-09-23T07:11:31.171Z,72.29
2022-09-23T07:13:58.581Z,72.45
2022-09-23T07:16:27.055Z,70.60
2022-09-23T07:18:55.472Z,69.69
2022-09-23T07:21:22.816Z,69.68
2022-09-23T07:23:52.909Z,69.71
2022-09-23T07:26:20.671Z,70.76
2022-09-23T07:28:48.779Z,70.28
2022-09-23T07:31:31.077Z,71.10
2022-09-23T07:34:05.621Z,71.52
2022-09-23T07:36:33.250Z,71.87
2022-09-23T07:39:04.044Z,72.60
2022-09-23T07:41:32.765Z,72.78
2022-09-23T07:44:01.401Z,72.34
2022-09-23T07:46:32.041Z,73.15
2022-09-23T07:48:59.870Z,72.92
2022-09-23T07:51:35.983Z,73.92
2022-09-23T07:54:08.081Z,73.91
2022-09-23T07:56:37.878Z,74.27
2022-09-23T07:59:09.096Z,74.80
2022-09-23T08:01:42.691Z,74.61
2022-09-23T08:04:20.141Z,75.81
2022-09-23T08:06:54.265Z,76.19
2022-09-23T08:09:31.929Z,76.54
2022-09-23T08:12:00.220Z,77.85
2022-09-23T08:14:30.826Z,78.77
2022-09-23T08:16:59.653Z,79.44
2022-09-23T08:19:26.901Z,79.96
2022-09-23T08:21:55.966Z,80.08
2022-09-23T08:24:26.699Z,79.90
2022-09-23T08:26:55.273Z,79.85
2022-09-23T08:29:25.315Z,79.76
2022-09-23T08:31:54.371Z,79.79
2022-09-23T08:34:23.108Z,79.46
2022-09-23T08:36:52.531Z,79.43
2022-09-23T08:39:20.974Z,79.72
2022-09-23T08:41:59.027Z,80.75
2022-09-23T08:45:00.482Z,81.47
2022-09-23T08:47:51.113Z,81.01
2022-09-23T08:50:22.242Z,79.76
2022-09-23T08:52:57.233Z,79.83
2022-09-23T08:55:34.466Z,80.14
2022-09-23T08:58:39.317Z,80.77
2022-09-23T09:01:40.120Z,80.17
2022-09-23T09:04:30.497Z,81.55
2022-09-23T09:07:34.806Z,81.89
2022-09-23T09:10:06.318Z,82.10
2022-09-23T09:12:50.803Z,81.78
2022-09-23T09:15:29.529Z,81.72
2022-09-23T09:18:01.897Z,80.91
2022-09-23T09:20:50.896Z,81.55
2022-09-23T09:23:22.772Z,80.66
2022-09-23T09:25:56.938Z,81.31
2022-09-23T09:28:31.232Z,81.48
2022-09-23T09:31:12.287Z,81.68
2022-09-23T09:33:51.829Z,82.58
2022-09-23T09:36:36.502Z,82.70
2022-09-23T09:39:05.494Z,81.19
2022-09-23T09:41:34.883Z,81.51
2022-09-23T09:44:10.740Z,81.94
2022-09-23T09:46:55.599Z,82.38
2022-09-23T09:49:26.489Z,81.55
2022-09-23T09:52:32.228Z,82.42
2022-09-23T09:55:12.473Z,81.76
2022-09-23T09:57:55.615Z,81.56
2022-09-23T10:00:23.632Z,80.50
2022-09-23T10:03:20.201Z,81.21
2022-09-23T10:05:53.166Z,79.69
2022-09-23T10:08:32.598Z,79.50
2022-09-23T10:11:04.215Z,79.37
2022-09-23T10:13:32.077Z,79.20
2022-09-23T10:16:04.676Z,78.99
2022-09-23T10:18:37.816Z,78.30
2022-09-23T10:21:11.003Z,77.63
2022-09-23T10:23:45.090Z,76.99
2022-09-23T10:26:17.561Z,76.36
2022-09-23T10:28:55.872Z,76.13
2022-09-23T10:31:29.607Z,75.98
2022-09-23T10:34:00.138Z,75.61
2022-09-23T10:36:30.124Z,75.00
2022-09-23T10:39:21.891Z,74.61
2022-09-23T10:42:17.296Z,74.36
2022-09-23T10:45:18.539Z,74.04
2022-09-23T10:48:10.132Z,73.17
2022-09-23T10:50:47.917Z,72.79
2022-09-23T10:53:44.531Z,71.98
2022-09-23T10:56:25.402Z,71.49
2022-09-23T10:59:28.143Z,70.90
2022-09-23T11:02:15.401Z,70.55
2022-09-23T11:05:21.809Z,70.60
2022-09-23T11:08:01.323Z,70.02
2022-09-23T11:10:46.369Z,70.30
2022-09-23T11:13:29.610Z,70.24
2022-09-23T11:16:24.333Z,69.85
2022-09-23T11:19:13.260Z,70.10
2022-09-23T11:21:58.577Z,69.71
2022-09-23T11:24:34.939Z,70.10
2022-09-23T11:27:18.189Z,69.64
2022-09-23T11:30:14.892Z,69.09
2022-09-23T11:33:14.432Z,68.70
2022-09-23T11:35:57.015Z,68.57
2022-09-23T11:38:33.011Z,68.56
2022-09-23T11:41:04.424Z,69.01
2022-09-23T11:43:38.721Z,69.00
2022-09-23T11:46:18.449Z,69.00
2022-09-23T11:48:52.348Z,69.01
2022-09-23T11:51:38.294Z,68.92
2022-09-23T11:54:11.601Z,69.49
2022-09-23T11:56:47.627Z,69.95
2022-09-23T11:59:40.583Z,70.55
2022-09-23T12:02:31.445Z,70.29
2022-09-23T12:05:04.715Z,70.09
2022-09-23T12:07:48.556Z,70.69
2022-09-23T12:10:16.736Z,70.37
2022-09-23T12:13:20.450Z,70.31
2022-09-23T12:16:04.191Z,71.01
2022-09-23T12:18:48.941Z,71.33
2022-09-23T12:21:48.830Z,71.36
2022-09-23T12:24:46.329Z,70.76
2022-09-23T12:27:45.180Z,71.49
2022-09-23T12:30:22.000Z,71.46
2022-09-23T12:32:50.454Z,71.23
2022-09-23T12:35:32.494Z,71.67
2022-09-23T12:38:01.456Z,72.09
2022-09-23T12:40:35.670Z,73.00
2022-09-23T12:43:03.561Z,73.14
2022-09-23T12:45:35.010Z,73.20
2022-09-23T12:48:04.901Z,73.53
2022-09-23T12:51:04.529Z,73.58
2022-09-23T12:53:35.997Z,73.44
2022-09-23T12:56:46.482Z,74.11
2022-09-23T12:59:17.234Z,73.31
2022-09-23T13:01:45.295Z,72.94
2022-09-23T13:04:54.450Z,73.20
2022-09-23T13:07:31.681Z,72.85
2022-09-23T13:10:11.197Z,72.58
2022-09-23T13:12:43.201Z,72.36
2022-09-23T13:15:22.882Z,72.51
2022-09-23T13:17:50.738Z,72.21
2022-09-23T13:20:20.851Z,71.99
2022-09-23T13:22:53.877Z,71.38
2022-09-23T13:25:33.609Z,71.31
2022-09-23T13:28:02.999Z,70.82
2022-09-23T13:30:30.971Z,70.96
2022-09-23T13:33:11.456Z,71.34
2022-09-23T13:35:43.778Z,71.64
2022-09-23T13:38:18.570Z,71.09
2022-09-23T13:40:46.686Z,71.28
2022-09-23T13:43:25.728Z,71.09
2022-09-23T13:45:53.073Z,70.89
2022-09-23T13:48:25.655Z,70.68
2022-09-23T13:50:54.097Z,70.74
2022-09-23T13:53:28.510Z,70.46
2022-09-23T13:56:07.504Z,70.47
2022-09-23T13:58:36.285Z,70.06
2022-09-23T14:01:04.337Z,70.30
2022-09-23T14:03:37.054Z,70.44
2022-09-23T14:06:12.920Z,69.83
2022-09-23T14:08:44.760Z,69.53
2022-09-23T14:11:20.740Z,68.78
2022-09-23T14:13:55.609Z,68.64
2022-09-23T14:16:26.673Z,68.21
2022-09-23T14:19:00.276Z,68.71
2022-09-23T14:21:37.977Z,67.88
2022-09-23T14:24:11.439Z,67.92
2022-09-23T14:26:40.033Z,67.89
2022-09-23T14:29:23.648Z,67.19
2022-09-23T14:32:00.923Z,66.88
2022-09-23T14:34:48.296Z,66.42
2022-09-23T14:37:37.170Z,66.41
2022-09-23T14:40:14.753Z,66.34
2022-09-23T14:43:02.786Z,65.92
2022-09-23T14:45:40.819Z,65.64
2022-09-23T14:48:30.954Z,65.86
2022-09-23T14:51:00.753Z,66.13
2022-09-23T14:53:46.493Z,65.88
2022-09-23T14:56:22.485Z,65.61
2022-09-23T14:59:00.947Z,65.99
2022-09-23T15:01:31.488Z,65.86
2022-09-23T15:04:11.856Z,65.62
2022-09-23T15:06:46.584Z,65.97
2022-09-23T15:09:21.232Z,65.71
2022-09-23T15:11:52.122Z,65.69
2022-09-23T15:14:37.269Z,65.70
2022-09-23T15:17:14.447Z,66.05
2022-09-23T15:19:43.509Z,66.17
2022-09-23T15:22:13.114Z,66.23
2022-09-23T15:24:45.502Z,66.37
2022-09-23T15:27:34.629Z,66.58
2022-09-23T15:30:23.421Z,66.48
2022-09-23T15:32:50.812Z,66.65
2022-09-23T15:35:21.348Z,66.75
2022-09-23T15:37:51.929Z,66.65
2022-09-23T15:40:27.074Z,66.79
2022-09-23T15:42:57.602Z,66.67
2022-09-23T15:45:53.407Z,66.43
2022-09-23T15:48:37.645Z,66.72
2022-09-23T15:51:08.514Z,67.11
2022-09-23T15:53:39.429Z,66.56
2022-09-23T15:56:07.408Z,66.88
2022-09-23T15:58:34.581Z,66.85
2022-09-23T16:01:02.068Z,66.88
2022-09-23T16:03:29.397Z,67.28
2022-09-23T16:06:00.298Z,67.39
2022-09-23T16:08:28.755Z,66.87
2022-09-23T16:10:57.229Z,67.19
2022-09-23T16:13:24.503Z,67.38
2022-09-23T16:15:51.783Z,67.48
2022-09-23T16:18:19.055Z,67.86
2022-09-23T16:20:48.092Z,67.77
2022-09-23T16:23:35.873Z,67.82
2022-09-23T16:26:07.889Z,68.07
2022-09-23T16:28:36.374Z,67.90
2022-09-23T16:31:04.364Z,67.76
2022-09-23T16:33:32.316Z,67.43
2022-09-23T16:36:03.510Z,67.17
2022-09-23T16:38:32.221Z,67.53
2022-09-23T16:41:01.137Z,67.66
2022-09-23T16:43:40.128Z,67.47
2022-09-23T16:46:12.443Z,67.17
2022-09-23T16:48:40.961Z,67.00
2022-09-23T16:51:13.452Z,66.98
2022-09-23T16:53:40.823Z,67.07
2022-09-23T16:56:09.874Z,66.95
2022-09-23T16:58:38.295Z,66.66
2022-09-23T17:01:26.569Z,66.96
2022-09-23T17:03:53.927Z,66.57
2022-09-23T17:06:24.245Z,66.89
2022-09-23T17:08:51.602Z,66.67
2022-09-23T17:11:19.661Z,66.16
2022-09-23T17:13:48.443Z,66.41
2022-09-23T17:16:25.050Z,66.14
2022-09-23T17:18:55.761Z,65.93
2022-09-23T17:21:28.099Z,65.52
2022-09-23T17:23:57.167Z,66.23
2022-09-23T17:26:26.677Z,66.14
2022-09-23T17:28:55.793Z,66.13
2022-09-23T17:31:24.959Z,66.14
2022-09-23T17:33:53.109Z,65.99
2022-09-23T17:36:21.494Z,66.20
2022-09-23T17:38:54.281Z,66.08
2022-09-23T17:41:21.705Z,66.38
2022-09-23T17:43:54.610Z,66.31
2022-09-23T17:46:21.939Z,65.86
2022-09-23T17:48:49.445Z,66.13
2022-09-23T17:51:22.427Z,66.02
2022-09-23T17:53:50.524Z,65.89
2022-09-23T17:56:20.815Z,65.87
2022-09-23T17:58:49.679Z,65.61
2022-09-23T18:01:20.512Z,65.48
2022-09-23T18:03:48.623Z,65.54
2022-09-23T18:06:21.271Z,65.56
2022-09-23T18:08:50.398Z,65.73
2022-09-23T18:11:18.048Z,65.11
2022-09-23T18:14:05.317Z,64.86
2022-09-23T18:16:38.380Z,64.54
2022-09-23T18:19:07.495Z,64.71
2022-09-23T18:21:37.653Z,64.38
2022-09-23T18:26:56.296Z,63.82
2022-09-23T18:29:23.638Z,63.79
2022-09-23T18:31:53.801Z,63.83
2022-09-23T18:34:21.410Z,63.71
2022-09-23T18:36:48.829Z,63.96
2022-09-23T18:39:16.934Z,63.86
2022-09-23T18:41:44.085Z,63.90
2022-09-23T18:44:11.531Z,63.97
2022-09-23T18:46:39.077Z,64.42
2022-09-23T18:49:25.039Z,64.19
2022-09-23T18:51:57.701Z,63.63
2022-09-23T18:54:27.882Z,63.43
2022-09-23T18:56:55.929Z,63.16
2022-09-23T18:59:25.454Z,64.09
2022-09-23T19:01:56.915Z,64.77
2022-09-23T19:04:26.103Z,65.29
2022-09-23T19:06:54.968Z,64.91
2022-09-23T19:09:22.633Z,65.16
2022-09-23T19:11:53.542Z,66.08
2022-09-23T19:14:21.514Z,65.72
2022-09-23T19:16:52.235Z,66.00
2022-09-23T19:19:19.769Z,66.40
2022-09-23T19:21:47.410Z,66.55
2022-09-23T19:24:20.212Z,65.83
2022-09-23T19:26:49.727Z,66.41
2022-09-23T19:29:22.257Z,66.44
2022-09-23T19:31:50.113Z,65.94
2022-09-23T19:34:20.113Z,65.54
2022-09-23T19:36:47.916Z,64.77
2022-09-23T19:39:18.047Z,65.24
2022-09-23T19:41:45.818Z,65.90
2022-09-23T19:44:14.377Z,66.16
2022-09-23T19:46:45.891Z,65.86
2022-09-23T19:49:13.943Z,66.71
2022-09-23T19:51:44.279Z,67.32
2022-09-23T19:54:12.157Z,66.83
2022-09-23T19:56:39.852Z,67.02
2022-09-23T19:59:09.573Z,67.19
2022-09-23T20:01:37.492Z,67.43
2022-09-23T20:04:05.915Z,67.81
2022-09-23T20:06:35.526Z,67.76
2022-09-23T20:09:04.628Z,68.04
2022-09-23T20:11:32.987Z,67.78
2022-09-23T20:14:02.286Z,67.99
2022-09-23T20:16:32.978Z,68.13
2022-09-23T20:19:01.186Z,68.08
2022-09-23T20:21:29.703Z,68.02
2022-09-23T20:23:58.315Z,68.15
2022-09-23T20:26:43.947Z,67.73
2022-09-23T20:29:11.495Z,67.55
2022-09-23T20:31:40.671Z,67.75
2022-09-23T20:34:10.570Z,66.97
2022-09-23T20:36:40.193Z,67.43
2022-09-23T20:39:09.878Z,66.99
2022-09-23T20:41:40.109Z,67.41
2022-09-23T20:44:12.721Z,67.38
2022-09-23T20:46:47.777Z,67.18
2022-09-23T20:49:20.029Z,68.47
2022-09-23T20:51:48.791Z,68.45
2022-09-23T20:54:19.509Z,69.25
2022-09-23T20:56:47.792Z,69.21
2022-09-23T20:59:15.193Z,69.10
2022-09-23T21:01:44.262Z,69.42
2022-09-23T21:04:11.703Z,68.43
2022-09-23T21:06:39.855Z,67.99
2022-09-23T21:09:07.651Z,67.88
2022-09-23T21:11:35.640Z,67.63
2022-09-23T21:14:03.070Z,67.51
2022-09-23T21:16:32.328Z,67.54
2022-09-23T21:19:00.563Z,67.93
2022-09-23T21:21:27.860Z,67.47
2022-09-23T21:23:56.474Z,67.22
2022-09-23T21:26:32.324Z,66.56
2022-09-23T21:29:01.885Z,67.07
2022-09-23T21:31:37.438Z,66.84
2022-09-23T21:34:07.390Z,66.61
2022-09-23T21:36:39.550Z,66.41
2022-09-23T21:39:09.674Z,66.72
2022-09-23T21:41:37.796Z,67.21
2022-09-23T21:44:06.731Z,67.00
2022-09-23T21:46:35.644Z,67.11
2022-09-23T21:49:04.276Z,67.91
2022-09-23T21:51:43.645Z,67.94
2022-09-23T21:54:14.533Z,68.05
2022-09-23T21:56:42.410Z,66.97
2022-09-23T21:59:09.951Z,67.38
2022-09-23T22:01:41.198Z,68.14
2022-09-23T22:04:14.728Z,66.75
2022-09-23T22:06:42.551Z,67.62
2022-09-23T22:09:13.418Z,67.02
2022-09-23T22:12:00.132Z,67.55
2022-09-23T22:14:28.062Z,67.50
2022-09-23T22:16:59.237Z,66.17
2022-09-23T22:19:33.445Z,66.26
2022-09-23T22:22:13.611Z,65.23
2022-09-23T22:24:42.305Z,65.08
2022-09-23T22:27:11.148Z,65.14
2022-09-23T22:29:56.942Z,65.44
2022-09-23T22:32:44.252Z,64.93
2022-09-23T22:35:13.896Z,64.19
2022-09-23T22:37:41.274Z,65.67
2022-09-23T22:40:11.243Z,64.82
2022-09-23T22:42:39.549Z,65.41
2022-09-23T22:45:08.672Z,65.46
2022-09-23T22:47:38.096Z,65.01
2022-09-23T22:50:09.168Z,64.76
2022-09-23T22:52:38.007Z,65.29
2022-09-23T22:55:08.175Z,65.11
2022-09-23T22:57:36.262Z,65.04
2022-09-23T23:00:08.169Z,65.42
2022-09-23T23:02:35.615Z,65.90
2022-09-23T23:05:02.822Z,65.67
2022-09-23T23:07:32.322Z,66.76
2022-09-23T23:10:00.169Z,67.17
2022-09-23T23:12:27.435Z,66.46
2022-09-23T23:14:55.109Z,67.05
2022-09-23T23:17:22.513Z,66.95
2022-09-23T23:19:51.439Z,66.53
2022-09-23T23:22:18.795Z,66.47
2022-09-23T23:24:46.468Z,66.25
2022-09-23T23:27:13.779Z,66.26
2022-09-23T23:29:41.309Z,67.00
2022-09-23T23:32:10.172Z,66.57
2022-09-23T23:34:37.441Z,67.34
2022-09-23T23:37:06.010Z,67.51
2022-09-23T23:39:34.150Z,67.38
2022-09-23T23:42:01.421Z,66.97
2022-09-23T23:44:31.713Z,66.59
2022-09-23T23:46:59.135Z,66.28
2022-09-23T23:49:26.388Z,65.47
2022-09-23T23:51:53.892Z,65.19
2022-09-23T23:54:21.068Z,65.03
2022-09-23T23:56:48.419Z,64.79
2022-09-23T23:59:15.656Z,64.54
